sensor_id;sensor_type;location;lat;lon;timestamp;temperature;humidity
18067;DHT22;9158;51.528;7.192;2023-02-17T00:00:04;9.60;1.00
18067;DHT22;9158;51.528;7.192;2023-02-17T00:02:25;9.70;1.00
18067;DHT22;9158;51.528;7.192;2023-02-17T00:02:57;9.60;1.00
18067;DHT22;9158;51.528;7.192;2023-02-17T00:03:28;9.70;1.00
18067;DHT22;9158;51.528;7.192;2023-02-17T00:04:00;9.70;1.00
18067;DHT22;9158;51.528;7.192;2023-02-17T00:04:32;9.60;1.00
18067;DHT22;9158;51.528;7.192;2023-02-17T00:05:04;9.70;1.00
18067;DHT22;9158;51.528;7.192;2023-02-17T00:05:38;9.70;1.00
18067;DHT22;9158;51.528;7.192;2023-02-17T00:06:10;10.30;1.00
18067;DHT22;9158;51.528;7.192;2023-02-17T00:06:41;9.70;1.00
18067;DHT22;9158;51.528;7.192;2023-02-17T00:07:13;10.60;1.00
18067;DHT22;9158;51.528;7.192;2023-02-17T00:07:44;9.70;1.00
18067;DHT22;9158;51.528;7.192;2023-02-17T00:08:15;9.70;1.00
18067;DHT22;9158;51.528;7.192;2023-02-17T00:08:47;11.50;1.00
18067;DHT22;9158;51.528;7.192;2023-02-17T00:09:19;9.70;1.00
18067;DHT22;9158;51.528;7.192;2023-02-17T00:09:51;11.20;1.00
18067;DHT22;9158;51.528;7.192;2023-02-17T00:10:23;9.70;1.00
18067;DHT22;9158;51.528;7.192;2023-02-17T00:10:55;9.70;1.00
18067;DHT22;9158;51.528;7.192;2023-02-17T00:11:27;9.80;1.00
18067;DHT22;9158;51.528;7.192;2023-02-17T00:11:59;9.80;1.00
18067;DHT22;9158;51.528;7.192;2023-02-17T00:12:30;9.80;1.00
18067;DHT22;9158;51.528;7.192;2023-02-17T00:13:01;9.80;1.00
18067;DHT22;9158;51.528;7.192;2023-02-17T00:13:33;9.80;1.00
18067;DHT22;9158;51.528;7.192;2023-02-17T00:14:04;9.80;1.00
18067;DHT22;9158;51.528;7.192;2023-02-17T00:14:35;9.80;1.00
18067;DHT22;9158;51.528;7.192;2023-02-17T00:15:07;9.70;1.00
18067;DHT22;9158;51.528;7.192;2023-02-17T00:15:38;9.80;1.00
18067;DHT22;9158;51.528;7.192;2023-02-17T00:16:11;9.80;1.00
18067;DHT22;9158;51.528;7.192;2023-02-17T00:16:44;9.70;1.00
18067;DHT22;9158;51.528;7.192;2023-02-17T00:17:15;9.80;1.00
18067;DHT22;9158;51.528;7.192;2023-02-17T00:17:46;9.80;1.00
18067;DHT22;9158;51.528;7.192;2023-02-17T00:18:18;9.80;1.00
18067;DHT22;9158;51.528;7.192;2023-02-17T00:18:52;9.80;1.00
18067;DHT22;9158;51.528;7.192;2023-02-17T00:19:23;9.80;1.00
18067;DHT22;9158;51.528;7.192;2023-02-17T00:19:55;9.80;1.00
18067;DHT22;9158;51.528;7.192;2023-02-17T00:20:28;9.80;1.00
18067;DHT22;9158;51.528;7.192;2023-02-17T00:20:59;9.70;1.00
18067;DHT22;9158;51.528;7.192;2023-02-17T00:21:31;9.70;1.00
18067;DHT22;9158;51.528;7.192;2023-02-17T00:22:02;9.80;1.00
18067;DHT22;9158;51.528;7.192;2023-02-17T00:22:35;9.80;1.00
18067;DHT22;9158;51.528;7.192;2023-02-17T00:23:05;9.80;1.00
18067;DHT22;9158;51.528;7.192;2023-02-17T00:23:36;9.70;1.00
18067;DHT22;9158;51.528;7.192;2023-02-17T00:24:08;9.80;1.00
18067;DHT22;9158;51.528;7.192;2023-02-17T00:24:40;9.80;1.00
18067;DHT22;9158;51.528;7.192;2023-02-17T00:25:12;9.80;1.00
18067;DHT22;9158;51.528;7.192;2023-02-17T00:25:43;10.30;1.00
18067;DHT22;9158;51.528;7.192;2023-02-17T00:26:17;9.80;1.00
18067;DHT22;9158;51.528;7.192;2023-02-17T00:26:48;10.00;1.00
18067;DHT22;9158;51.528;7.192;2023-02-17T00:27:52;9.80;1.00
18067;DHT22;9158;51.528;7.192;2023-02-17T00:29:26;9.80;1.00
18067;DHT22;9158;51.528;7.192;2023-02-17T00:30:30;9.80;1.00
18067;DHT22;9158;51.528;7.192;2023-02-17T00:31:05;9.90;1.00
18067;DHT22;9158;51.528;7.192;2023-02-17T00:31:37;9.80;1.00
18067;DHT22;9158;51.528;7.192;2023-02-17T00:32:08;9.70;1.00
18067;DHT22;9158;51.528;7.192;2023-02-17T00:32:40;9.80;1.00
18067;DHT22;9158;51.528;7.192;2023-02-17T00:33:11;9.80;1.00
18067;DHT22;9158;51.528;7.192;2023-02-17T00:33:43;9.90;1.00
18067;DHT22;9158;51.528;7.192;2023-02-17T00:34:16;11.70;1.00
18067;DHT22;9158;51.528;7.192;2023-02-17T00:34:47;9.90;1.00
18067;DHT22;9158;51.528;7.192;2023-02-17T00:35:19;9.90;1.00
18067;DHT22;9158;51.528;7.192;2023-02-17T00:35:50;9.90;1.00
18067;DHT22;9158;51.528;7.192;2023-02-17T00:36:21;9.90;1.00
18067;DHT22;9158;51.528;7.192;2023-02-17T00:36:53;9.90;1.00
18067;DHT22;9158;51.528;7.192;2023-02-17T00:37:24;10.50;1.00
18067;DHT22;9158;51.528;7.192;2023-02-17T00:37:55;10.30;1.00
18067;DHT22;9158;51.528;7.192;2023-02-17T00:38:28;9.90;1.00
18067;DHT22;9158;51.528;7.192;2023-02-17T00:38:59;10.00;1.00
18067;DHT22;9158;51.528;7.192;2023-02-17T00:39:30;9.90;1.00
18067;DHT22;9158;51.528;7.192;2023-02-17T00:40:02;9.90;1.00
18067;DHT22;9158;51.528;7.192;2023-02-17T00:40:34;9.90;1.00
18067;DHT22;9158;51.528;7.192;2023-02-17T00:41:38;9.90;1.00
18067;DHT22;9158;51.528;7.192;2023-02-17T00:43:45;9.90;99.90
18067;DHT22;9158;51.528;7.192;2023-02-17T00:44:21;9.90;99.90
18067;DHT22;9158;51.528;7.192;2023-02-17T00:44:52;9.90;99.90
18067;DHT22;9158;51.528;7.192;2023-02-17T00:45:24;9.90;99.90
18067;DHT22;9158;51.528;7.192;2023-02-17T00:45:56;9.90;99.90
18067;DHT22;9158;51.528;7.192;2023-02-17T00:46:27;10.00;99.90
18067;DHT22;9158;51.528;7.192;2023-02-17T00:46:58;9.90;99.90
18067;DHT22;9158;51.528;7.192;2023-02-17T00:47:30;9.90;1.00
18067;DHT22;9158;51.528;7.192;2023-02-17T00:48:01;12.20;1.00
18067;DHT22;9158;51.528;7.192;2023-02-17T00:49:36;10.00;1.00
18067;DHT22;9158;51.528;7.192;2023-02-17T00:50:40;9.90;1.00
18067;DHT22;9158;51.528;7.192;2023-02-17T00:51:43;10.00;99.90
18067;DHT22;9158;51.528;7.192;2023-02-17T00:52:15;10.00;99.90
18067;DHT22;9158;51.528;7.192;2023-02-17T00:53:50;10.00;99.90
18067;DHT22;9158;51.528;7.192;2023-02-17T00:54:21;10.00;99.90
18067;DHT22;9158;51.528;7.192;2023-02-17T00:55:25;10.00;99.90
18067;DHT22;9158;51.528;7.192;2023-02-17T00:57:35;10.10;99.90
18067;DHT22;9158;51.528;7.192;2023-02-17T00:58:06;10.10;99.90
18067;DHT22;9158;51.528;7.192;2023-02-17T00:58:38;10.10;99.90
18067;DHT22;9158;51.528;7.192;2023-02-17T00:59:11;10.10;99.90
18067;DHT22;9158;51.528;7.192;2023-02-17T00:59:42;10.10;99.90
18067;DHT22;9158;51.528;7.192;2023-02-17T01:00:15;10.00;99.90
18067;DHT22;9158;51.528;7.192;2023-02-17T01:00:46;10.10;99.90
18067;DHT22;9158;51.528;7.192;2023-02-17T01:01:17;10.10;99.90
18067;DHT22;9158;51.528;7.192;2023-02-17T01:01:49;10.10;99.90
18067;DHT22;9158;51.528;7.192;2023-02-17T01:02:20;10.60;99.90
18067;DHT22;9158;51.528;7.192;2023-02-17T01:02:51;10.00;99.90
18067;DHT22;9158;51.528;7.192;2023-02-17T01:03:23;10.00;99.90
18067;DHT22;9158;51.528;7.192;2023-02-17T01:03:55;10.10;99.90
18067;DHT22;9158;51.528;7.192;2023-02-17T01:04:26;10.10;99.90
18067;DHT22;9158;51.528;7.192;2023-02-17T01:04:58;10.00;99.90
18067;DHT22;9158;51.528;7.192;2023-02-17T01:05:29;10.00;99.90
18067;DHT22;9158;51.528;7.192;2023-02-17T01:06:04;10.00;99.90
18067;DHT22;9158;51.528;7.192;2023-02-17T01:06:38;10.10;99.90
18067;DHT22;9158;51.528;7.192;2023-02-17T01:07:11;10.10;99.90
18067;DHT22;9158;51.528;7.192;2023-02-17T01:07:41;10.10;99.90
18067;DHT22;9158;51.528;7.192;2023-02-17T01:08:15;10.00;99.90
18067;DHT22;9158;51.528;7.192;2023-02-17T01:08:46;10.00;99.90
18067;DHT22;9158;51.528;7.192;2023-02-17T01:09:18;10.00;99.90
18067;DHT22;9158;51.528;7.192;2023-02-17T01:09:49;10.00;99.90
18067;DHT22;9158;51.528;7.192;2023-02-17T01:10:20;10.00;99.90
18067;DHT22;9158;51.528;7.192;2023-02-17T01:10:52;10.00;99.90
18067;DHT22;9158;51.528;7.192;2023-02-17T01:11:26;10.10;99.90
18067;DHT22;9158;51.528;7.192;2023-02-17T01:11:58;10.10;99.90
18067;DHT22;9158;51.528;7.192;2023-02-17T01:12:30;10.00;99.90
18067;DHT22;9158;51.528;7.192;2023-02-17T01:13:02;10.00;99.90
18067;DHT22;9158;51.528;7.192;2023-02-17T01:13:33;10.10;99.90
18067;DHT22;9158;51.528;7.192;2023-02-17T01:14:05;10.10;99.90
18067;DHT22;9158;51.528;7.192;2023-02-17T01:14:36;10.10;99.90
18067;DHT22;9158;51.528;7.192;2023-02-17T01:15:08;10.00;99.90
18067;DHT22;9158;51.528;7.192;2023-02-17T01:15:41;10.10;99.90
18067;DHT22;9158;51.528;7.192;2023-02-17T01:16:17;10.00;99.90
18067;DHT22;9158;51.528;7.192;2023-02-17T01:16:48;10.80;99.90
18067;DHT22;9158;51.528;7.192;2023-02-17T01:17:19;10.10;99.90
18067;DHT22;9158;51.528;7.192;2023-02-17T01:17:51;10.10;1.00
18067;DHT22;9158;51.528;7.192;2023-02-17T01:18:25;10.10;1.00
18067;DHT22;9158;51.528;7.192;2023-02-17T01:18:56;10.00;1.00
18067;DHT22;9158;51.528;7.192;2023-02-17T01:19:28;10.00;1.00
18067;DHT22;9158;51.528;7.192;2023-02-17T01:19:59;10.00;1.00
18067;DHT22;9158;51.528;7.192;2023-02-17T01:20:33;10.00;1.00
18067;DHT22;9158;51.528;7.192;2023-02-17T01:21:05;10.00;1.00
18067;DHT22;9158;51.528;7.192;2023-02-17T01:21:44;10.00;1.00
18067;DHT22;9158;51.528;7.192;2023-02-17T01:22:15;12.00;1.00
18067;DHT22;9158;51.528;7.192;2023-02-17T01:22:47;10.00;1.00
18067;DHT22;9158;51.528;7.192;2023-02-17T01:23:18;10.00;1.00
18067;DHT22;9158;51.528;7.192;2023-02-17T01:23:50;10.00;1.00
18067;DHT22;9158;51.528;7.192;2023-02-17T01:24:22;10.00;1.00
18067;DHT22;9158;51.528;7.192;2023-02-17T01:24:53;10.00;1.00
18067;DHT22;9158;51.528;7.192;2023-02-17T01:25:24;10.00;1.00
18067;DHT22;9158;51.528;7.192;2023-02-17T01:25:55;10.00;1.00
18067;DHT22;9158;51.528;7.192;2023-02-17T01:26:30;10.00;1.00
18067;DHT22;9158;51.528;7.192;2023-02-17T01:27:01;10.00;1.00
18067;DHT22;9158;51.528;7.192;2023-02-17T01:27:32;10.00;1.00
18067;DHT22;9158;51.528;7.192;2023-02-17T01:28:04;10.00;1.00
18067;DHT22;9158;51.528;7.192;2023-02-17T01:28:36;10.00;1.00
18067;DHT22;9158;51.528;7.192;2023-02-17T01:29:07;10.00;1.00
18067;DHT22;9158;51.528;7.192;2023-02-17T01:29:38;10.00;1.00
18067;DHT22;9158;51.528;7.192;2023-02-17T01:30:11;10.00;1.00
18067;DHT22;9158;51.528;7.192;2023-02-17T01:30:43;10.00;1.00
18067;DHT22;9158;51.528;7.192;2023-02-17T01:31:18;10.00;1.00
18067;DHT22;9158;51.528;7.192;2023-02-17T01:31:50;10.00;1.00
18067;DHT22;9158;51.528;7.192;2023-02-17T01:32:21;10.00;1.00
18067;DHT22;9158;51.528;7.192;2023-02-17T01:32:52;10.00;1.00
18067;DHT22;9158;51.528;7.192;2023-02-17T01:33:26;10.20;1.00
18067;DHT22;9158;51.528;7.192;2023-02-17T01:33:59;10.00;1.00
18067;DHT22;9158;51.528;7.192;2023-02-17T01:34:30;10.00;1.00
18067;DHT22;9158;51.528;7.192;2023-02-17T01:35:03;10.00;1.00
18067;DHT22;9158;51.528;7.192;2023-02-17T01:35:38;10.00;1.00
18067;DHT22;9158;51.528;7.192;2023-02-17T01:36:10;10.40;1.00
18067;DHT22;9158;51.528;7.192;2023-02-17T01:36:43;10.00;1.00
18067;DHT22;9158;51.528;7.192;2023-02-17T01:37:14;10.00;1.00
18067;DHT22;9158;51.528;7.192;2023-02-17T01:37:45;10.00;1.00
18067;DHT22;9158;51.528;7.192;2023-02-17T01:38:17;10.00;1.00
18067;DHT22;9158;51.528;7.192;2023-02-17T01:38:48;10.00;1.00
18067;DHT22;9158;51.528;7.192;2023-02-17T01:39:22;10.00;1.00
18067;DHT22;9158;51.528;7.192;2023-02-17T01:39:54;11.60;1.00
18067;DHT22;9158;51.528;7.192;2023-02-17T01:40:25;10.00;1.00
18067;DHT22;9158;51.528;7.192;2023-02-17T01:40:56;9.90;1.00
18067;DHT22;9158;51.528;7.192;2023-02-17T01:41:29;10.00;1.00
18067;DHT22;9158;51.528;7.192;2023-02-17T01:42:00;10.00;99.90
18067;DHT22;9158;51.528;7.192;2023-02-17T01:42:31;10.00;1.00
18067;DHT22;9158;51.528;7.192;2023-02-17T01:43:35;10.00;1.00
18067;DHT22;9158;51.528;7.192;2023-02-17T01:44:13;10.20;1.00
18067;DHT22;9158;51.528;7.192;2023-02-17T01:45:54;10.00;1.00
18067;DHT22;9158;51.528;7.192;2023-02-17T01:46:25;10.00;1.00
18067;DHT22;9158;51.528;7.192;2023-02-17T01:46:56;9.90;1.30
18067;DHT22;9158;51.528;7.192;2023-02-17T01:47:28;10.40;94.40
18067;DHT22;9158;51.528;7.192;2023-02-17T01:48:02;9.90;53.80
18067;DHT22;9158;51.528;7.192;2023-02-17T01:48:37;9.90;99.90
18067;DHT22;9158;51.528;7.192;2023-02-17T01:49:16;9.90;99.90
18067;DHT22;9158;51.528;7.192;2023-02-17T01:49:50;9.90;99.90
18067;DHT22;9158;51.528;7.192;2023-02-17T01:50:23;9.90;99.90
18067;DHT22;9158;51.528;7.192;2023-02-17T01:50:59;9.90;99.90
18067;DHT22;9158;51.528;7.192;2023-02-17T01:51:34;9.90;99.90
18067;DHT22;9158;51.528;7.192;2023-02-17T01:52:11;9.90;99.90
18067;DHT22;9158;51.528;7.192;2023-02-17T01:52:43;9.90;99.90
18067;DHT22;9158;51.528;7.192;2023-02-17T01:53:18;9.90;99.90
18067;DHT22;9158;51.528;7.192;2023-02-17T01:53:53;9.90;99.90
18067;DHT22;9158;51.528;7.192;2023-02-17T01:54:28;9.90;99.90
18067;DHT22;9158;51.528;7.192;2023-02-17T01:55:04;10.70;99.90
18067;DHT22;9158;51.528;7.192;2023-02-17T01:55:38;11.40;99.90
18067;DHT22;9158;51.528;7.192;2023-02-17T01:56:11;10.30;99.90
18067;DHT22;9158;51.528;7.192;2023-02-17T01:56:46;9.90;99.90
18067;DHT22;9158;51.528;7.192;2023-02-17T01:57:21;9.90;99.90
18067;DHT22;9158;51.528;7.192;2023-02-17T01:57:56;9.90;1.00
18067;DHT22;9158;51.528;7.192;2023-02-17T01:58:28;9.90;1.00
18067;DHT22;9158;51.528;7.192;2023-02-17T01:59:04;9.90;1.00
18067;DHT22;9158;51.528;7.192;2023-02-17T01:59:36;9.90;1.00
18067;DHT22;9158;51.528;7.192;2023-02-17T02:00:10;9.90;1.00
18067;DHT22;9158;51.528;7.192;2023-02-17T02:00:44;9.90;1.00
18067;DHT22;9158;51.528;7.192;2023-02-17T02:01:17;9.90;1.00
18067;DHT22;9158;51.528;7.192;2023-02-17T02:01:53;9.90;1.00
18067;DHT22;9158;51.528;7.192;2023-02-17T02:02:24;10.70;1.00
18067;DHT22;9158;51.528;7.192;2023-02-17T02:02:59;9.90;1.00
18067;DHT22;9158;51.528;7.192;2023-02-17T02:03:33;10.10;1.00
18067;DHT22;9158;51.528;7.192;2023-02-17T02:04:07;9.80;1.00
18067;DHT22;9158;51.528;7.192;2023-02-17T02:04:40;9.80;1.00
18067;DHT22;9158;51.528;7.192;2023-02-17T02:05:13;9.90;1.00
18067;DHT22;9158;51.528;7.192;2023-02-17T02:05:45;9.80;1.00
18067;DHT22;9158;51.528;7.192;2023-02-17T02:06:19;9.80;1.00
18067;DHT22;9158;51.528;7.192;2023-02-17T02:06:50;9.80;1.00
18067;DHT22;9158;51.528;7.192;2023-02-17T02:07:28;9.80;1.00
18067;DHT22;9158;51.528;7.192;2023-02-17T02:08:00;9.80;1.00
18067;DHT22;9158;51.528;7.192;2023-02-17T02:08:37;10.50;1.00
18067;DHT22;9158;51.528;7.192;2023-02-17T02:09:17;9.80;1.00
18067;DHT22;9158;51.528;7.192;2023-02-17T02:09:54;9.80;1.00
18067;DHT22;9158;51.528;7.192;2023-02-17T02:10:26;9.80;1.00
18067;DHT22;9158;51.528;7.192;2023-02-17T02:10:58;9.80;1.00
18067;DHT22;9158;51.528;7.192;2023-02-17T02:11:37;9.80;1.00
18067;DHT22;9158;51.528;7.192;2023-02-17T02:12:17;9.80;1.00
18067;DHT22;9158;51.528;7.192;2023-02-17T02:12:50;9.80;1.00
18067;DHT22;9158;51.528;7.192;2023-02-17T02:13:21;9.80;1.00
18067;DHT22;9158;51.528;7.192;2023-02-17T02:13:52;9.80;1.00
18067;DHT22;9158;51.528;7.192;2023-02-17T02:14:24;10.00;1.00
18067;DHT22;9158;51.528;7.192;2023-02-17T02:14:57;9.80;1.00
18067;DHT22;9158;51.528;7.192;2023-02-17T02:15:34;9.80;1.00
18067;DHT22;9158;51.528;7.192;2023-02-17T02:16:13;9.80;1.00
18067;DHT22;9158;51.528;7.192;2023-02-17T02:16:51;9.80;1.00
18067;DHT22;9158;51.528;7.192;2023-02-17T02:17:32;9.80;1.00
18067;DHT22;9158;51.528;7.192;2023-02-17T02:19:07;9.80;1.00
18067;DHT22;9158;51.528;7.192;2023-02-17T02:20:22;9.80;1.00
18067;DHT22;9158;51.528;7.192;2023-02-17T02:21:31;9.80;1.00
18067;DHT22;9158;51.528;7.192;2023-02-17T02:23:49;9.50;1.00
18067;DHT22;9158;51.528;7.192;2023-02-17T02:24:30;9.80;1.00
18067;DHT22;9158;51.528;7.192;2023-02-17T02:25:12;9.80;1.00
18067;DHT22;9158;51.528;7.192;2023-02-17T02:26:16;9.80;1.00
18067;DHT22;9158;51.528;7.192;2023-02-17T02:27:27;9.80;1.00
18067;DHT22;9158;51.528;7.192;2023-02-17T02:28:09;9.80;1.00
18067;DHT22;9158;51.528;7.192;2023-02-17T02:28:58;9.80;1.00
18067;DHT22;9158;51.528;7.192;2023-02-17T02:31:09;9.80;1.00
18067;DHT22;9158;51.528;7.192;2023-02-17T02:31:58;9.80;1.00
18067;DHT22;9158;51.528;7.192;2023-02-17T02:32:46;10.10;1.00
18067;DHT22;9158;51.528;7.192;2023-02-17T02:33:30;9.80;1.00
18067;DHT22;9158;51.528;7.192;2023-02-17T02:34:05;9.80;1.00
18067;DHT22;9158;51.528;7.192;2023-02-17T02:34:43;9.80;1.00
18067;DHT22;9158;51.528;7.192;2023-02-17T02:35:18;9.80;1.00
18067;DHT22;9158;51.528;7.192;2023-02-17T02:35:57;9.80;1.00
18067;DHT22;9158;51.528;7.192;2023-02-17T02:36:32;9.80;1.00
18067;DHT22;9158;51.528;7.192;2023-02-17T02:37:07;9.80;1.00
18067;DHT22;9158;51.528;7.192;2023-02-17T02:37:44;9.80;1.00
18067;DHT22;9158;51.528;7.192;2023-02-17T02:38:21;9.80;1.00
18067;DHT22;9158;51.528;7.192;2023-02-17T02:38:57;9.80;1.00
18067;DHT22;9158;51.528;7.192;2023-02-17T02:39:33;9.80;1.00
18067;DHT22;9158;51.528;7.192;2023-02-17T02:40:10;9.80;1.00
18067;DHT22;9158;51.528;7.192;2023-02-17T02:40:45;9.80;1.00
18067;DHT22;9158;51.528;7.192;2023-02-17T02:41:23;9.80;1.00
18067;DHT22;9158;51.528;7.192;2023-02-17T02:42:01;9.80;1.00
18067;DHT22;9158;51.528;7.192;2023-02-17T02:42:34;11.00;1.00
18067;DHT22;9158;51.528;7.192;2023-02-17T02:43:06;9.80;1.00
18067;DHT22;9158;51.528;7.192;2023-02-17T02:43:39;9.80;1.00
18067;DHT22;9158;51.528;7.192;2023-02-17T02:44:14;9.90;1.00
18067;DHT22;9158;51.528;7.192;2023-02-17T02:44:46;9.90;1.00
18067;DHT22;9158;51.528;7.192;2023-02-17T02:45:18;9.80;1.00
18067;DHT22;9158;51.528;7.192;2023-02-17T02:45:49;9.80;1.00
18067;DHT22;9158;51.528;7.192;2023-02-17T02:46:20;10.90;1.00
18067;DHT22;9158;51.528;7.192;2023-02-17T02:46:57;9.90;1.00
18067;DHT22;9158;51.528;7.192;2023-02-17T02:47:48;9.90;1.00
18067;DHT22;9158;51.528;7.192;2023-02-17T02:48:23;9.80;1.00
18067;DHT22;9158;51.528;7.192;2023-02-17T02:48:55;9.80;1.00
18067;DHT22;9158;51.528;7.192;2023-02-17T02:49:26;9.80;1.00
18067;DHT22;9158;51.528;7.192;2023-02-17T02:50:42;9.80;1.00
18067;DHT22;9158;51.528;7.192;2023-02-17T02:51:32;9.90;1.00
18067;DHT22;9158;51.528;7.192;2023-02-17T02:52:13;9.90;1.00
18067;DHT22;9158;51.528;7.192;2023-02-17T02:53:00;9.80;1.00
18067;DHT22;9158;51.528;7.192;2023-02-17T02:53:57;9.90;1.00
18067;DHT22;9158;51.528;7.192;2023-02-17T02:54:48;9.90;1.00
18067;DHT22;9158;51.528;7.192;2023-02-17T02:55:32;9.90;1.00
18067;DHT22;9158;51.528;7.192;2023-02-17T02:56:14;9.90;1.00
18067;DHT22;9158;51.528;7.192;2023-02-17T02:57:18;9.90;1.00
18067;DHT22;9158;51.528;7.192;2023-02-17T02:57:58;9.90;1.00
18067;DHT22;9158;51.528;7.192;2023-02-17T02:58:39;9.90;1.00
18067;DHT22;9158;51.528;7.192;2023-02-17T02:59:22;9.90;1.00
18067;DHT22;9158;51.528;7.192;2023-02-17T03:00:05;9.90;1.00
18067;DHT22;9158;51.528;7.192;2023-02-17T03:00:46;9.90;99.90
18067;DHT22;9158;51.528;7.192;2023-02-17T03:01:25;9.90;99.90
18067;DHT22;9158;51.528;7.192;2023-02-17T03:02:07;9.90;99.90
18067;DHT22;9158;51.528;7.192;2023-02-17T03:02:45;9.90;99.90
18067;DHT22;9158;51.528;7.192;2023-02-17T03:03:27;10.00;99.90
18067;DHT22;9158;51.528;7.192;2023-02-17T03:04:06;9.90;99.90
18067;DHT22;9158;51.528;7.192;2023-02-17T03:04:44;10.00;99.90
18067;DHT22;9158;51.528;7.192;2023-02-17T03:05:23;10.00;1.00
18067;DHT22;9158;51.528;7.192;2023-02-17T03:06:01;10.00;1.00
18067;DHT22;9158;51.528;7.192;2023-02-17T03:06:40;10.80;1.00
18067;DHT22;9158;51.528;7.192;2023-02-17T03:07:14;10.00;1.00
18067;DHT22;9158;51.528;7.192;2023-02-17T03:07:57;10.00;1.00
18067;DHT22;9158;51.528;7.192;2023-02-17T03:08:33;10.10;99.90
18067;DHT22;9158;51.528;7.192;2023-02-17T03:09:08;10.10;99.90
18067;DHT22;9158;51.528;7.192;2023-02-17T03:10:16;10.10;99.90
18067;DHT22;9158;51.528;7.192;2023-02-17T03:10:50;10.10;99.90
18067;DHT22;9158;51.528;7.192;2023-02-17T03:11:22;10.10;99.90
18067;DHT22;9158;51.528;7.192;2023-02-17T03:12:02;10.10;19.90
18067;DHT22;9158;51.528;7.192;2023-02-17T03:12:36;10.10;1.00
18067;DHT22;9158;51.528;7.192;2023-02-17T03:13:08;10.10;1.00
18067;DHT22;9158;51.528;7.192;2023-02-17T03:13:42;10.60;1.00
18067;DHT22;9158;51.528;7.192;2023-02-17T03:14:19;10.10;1.00
18067;DHT22;9158;51.528;7.192;2023-02-17T03:14:54;10.80;99.90
18067;DHT22;9158;51.528;7.192;2023-02-17T03:15:28;9.50;99.90
18067;DHT22;9158;51.528;7.192;2023-02-17T03:15:59;10.20;99.90
18067;DHT22;9158;51.528;7.192;2023-02-17T03:16:32;10.10;99.90
18067;DHT22;9158;51.528;7.192;2023-02-17T03:17:03;10.10;99.90
18067;DHT22;9158;51.528;7.192;2023-02-17T03:17:34;10.20;99.90
18067;DHT22;9158;51.528;7.192;2023-02-17T03:18:07;10.20;99.90
18067;DHT22;9158;51.528;7.192;2023-02-17T03:19:12;10.20;99.90
18067;DHT22;9158;51.528;7.192;2023-02-17T03:19:44;10.20;99.90
18067;DHT22;9158;51.528;7.192;2023-02-17T03:20:17;10.20;99.90
18067;DHT22;9158;51.528;7.192;2023-02-17T03:20:53;10.20;99.90
18067;DHT22;9158;51.528;7.192;2023-02-17T03:21:34;10.30;99.90
18067;DHT22;9158;51.528;7.192;2023-02-17T03:22:10;10.20;99.60
18067;DHT22;9158;51.528;7.192;2023-02-17T03:22:46;10.20;99.90
18067;DHT22;9158;51.528;7.192;2023-02-17T03:23:19;10.30;99.90
18067;DHT22;9158;51.528;7.192;2023-02-17T03:23:50;10.30;78.50
18067;DHT22;9158;51.528;7.192;2023-02-17T03:24:21;10.30;1.00
18067;DHT22;9158;51.528;7.192;2023-02-17T03:24:54;10.20;1.00
18067;DHT22;9158;51.528;7.192;2023-02-17T03:25:25;10.30;1.00
18067;DHT22;9158;51.528;7.192;2023-02-17T03:25:56;10.30;1.00
18067;DHT22;9158;51.528;7.192;2023-02-17T03:26:29;10.20;1.00
18067;DHT22;9158;51.528;7.192;2023-02-17T03:27:00;10.30;1.00
18067;DHT22;9158;51.528;7.192;2023-02-17T03:27:32;10.30;1.00
18067;DHT22;9158;51.528;7.192;2023-02-17T03:28:04;10.30;1.00
18067;DHT22;9158;51.528;7.192;2023-02-17T03:28:35;10.20;1.00
18067;DHT22;9158;51.528;7.192;2023-02-17T03:29:06;10.30;99.90
18067;DHT22;9158;51.528;7.192;2023-02-17T03:29:38;10.30;1.00
18067;DHT22;9158;51.528;7.192;2023-02-17T03:30:10;10.30;1.00
18067;DHT22;9158;51.528;7.192;2023-02-17T03:30:41;10.30;1.00
18067;DHT22;9158;51.528;7.192;2023-02-17T03:31:12;10.30;1.00
18067;DHT22;9158;51.528;7.192;2023-02-17T03:31:44;10.40;1.00
18067;DHT22;9158;51.528;7.192;2023-02-17T03:32:15;10.30;1.00
18067;DHT22;9158;51.528;7.192;2023-02-17T03:32:46;10.40;1.00
18067;DHT22;9158;51.528;7.192;2023-02-17T03:33:17;10.40;1.00
18067;DHT22;9158;51.528;7.192;2023-02-17T03:33:51;10.40;99.90
18067;DHT22;9158;51.528;7.192;2023-02-17T03:34:22;10.40;99.90
18067;DHT22;9158;51.528;7.192;2023-02-17T03:34:53;10.50;99.90
18067;DHT22;9158;51.528;7.192;2023-02-17T03:35:26;10.40;99.90
18067;DHT22;9158;51.528;7.192;2023-02-17T03:38:35;10.50;99.90
18067;DHT22;9158;51.528;7.192;2023-02-17T03:39:39;10.50;99.90
18067;DHT22;9158;51.528;7.192;2023-02-17T03:40:10;10.50;99.90
18067;DHT22;9158;51.528;7.192;2023-02-17T03:40:41;10.50;99.90
18067;DHT22;9158;51.528;7.192;2023-02-17T03:41:44;10.50;99.90
18067;DHT22;9158;51.528;7.192;2023-02-17T03:42:15;10.50;99.90
18067;DHT22;9158;51.528;7.192;2023-02-17T03:44:22;10.50;99.90
18067;DHT22;9158;51.528;7.192;2023-02-17T03:46:59;10.50;99.90
18067;DHT22;9158;51.528;7.192;2023-02-17T03:48:03;10.50;54.00
18067;DHT22;9158;51.528;7.192;2023-02-17T03:48:34;10.60;99.90
18067;DHT22;9158;51.528;7.192;2023-02-17T03:49:07;10.60;99.90
18067;DHT22;9158;51.528;7.192;2023-02-17T03:50:10;10.60;99.90
18067;DHT22;9158;51.528;7.192;2023-02-17T03:51:14;10.60;1.00
18067;DHT22;9158;51.528;7.192;2023-02-17T03:51:46;10.50;1.00
18067;DHT22;9158;51.528;7.192;2023-02-17T03:52:18;13.00;1.00
18067;DHT22;9158;51.528;7.192;2023-02-17T03:52:49;10.60;53.90
18067;DHT22;9158;51.528;7.192;2023-02-17T03:53:20;10.60;99.90
18067;DHT22;9158;51.528;7.192;2023-02-17T03:53:51;10.60;98.30
18067;DHT22;9158;51.528;7.192;2023-02-17T03:54:23;10.60;99.90
18067;DHT22;9158;51.528;7.192;2023-02-17T03:54:54;10.60;99.90
18067;DHT22;9158;51.528;7.192;2023-02-17T03:55:25;10.60;23.90
18067;DHT22;9158;51.528;7.192;2023-02-17T03:55:57;10.60;99.90
18067;DHT22;9158;51.528;7.192;2023-02-17T03:56:28;10.60;99.90
18067;DHT22;9158;51.528;7.192;2023-02-17T03:56:59;10.60;91.70
18067;DHT22;9158;51.528;7.192;2023-02-17T03:57:32;10.60;99.90
18067;DHT22;9158;51.528;7.192;2023-02-17T03:58:04;10.60;1.00
18067;DHT22;9158;51.528;7.192;2023-02-17T03:58:35;10.60;1.00
18067;DHT22;9158;51.528;7.192;2023-02-17T03:59:38;8.80;1.00
18067;DHT22;9158;51.528;7.192;2023-02-17T04:00:11;10.60;1.00
18067;DHT22;9158;51.528;7.192;2023-02-17T04:00:45;10.60;1.00
18067;DHT22;9158;51.528;7.192;2023-02-17T04:01:49;10.60;1.00
18067;DHT22;9158;51.528;7.192;2023-02-17T04:02:20;10.60;1.00
18067;DHT22;9158;51.528;7.192;2023-02-17T04:02:51;10.60;99.90
18067;DHT22;9158;51.528;7.192;2023-02-17T04:03:23;10.60;1.00
18067;DHT22;9158;51.528;7.192;2023-02-17T04:03:54;10.60;1.00
18067;DHT22;9158;51.528;7.192;2023-02-17T04:04:26;10.60;1.00
18067;DHT22;9158;51.528;7.192;2023-02-17T04:04:57;10.70;5.30
18067;DHT22;9158;51.528;7.192;2023-02-17T04:05:29;10.60;1.00
18067;DHT22;9158;51.528;7.192;2023-02-17T04:06:00;10.70;1.00
18067;DHT22;9158;51.528;7.192;2023-02-17T04:06:32;10.60;1.00
18067;DHT22;9158;51.528;7.192;2023-02-17T04:07:04;10.70;1.00
18067;DHT22;9158;51.528;7.192;2023-02-17T04:07:35;10.70;1.00
18067;DHT22;9158;51.528;7.192;2023-02-17T04:08:06;10.70;1.00
18067;DHT22;9158;51.528;7.192;2023-02-17T04:08:38;10.70;1.00
18067;DHT22;9158;51.528;7.192;2023-02-17T04:09:09;10.70;1.00
18067;DHT22;9158;51.528;7.192;2023-02-17T04:09:40;10.70;1.00
18067;DHT22;9158;51.528;7.192;2023-02-17T04:10:12;10.70;1.00
18067;DHT22;9158;51.528;7.192;2023-02-17T04:10:43;10.70;1.00
18067;DHT22;9158;51.528;7.192;2023-02-17T04:11:14;10.70;1.00